createdAt,value
2018-11-20T01:11:04.402Z,14.63
2018-11-20T01:24:04.003Z,13.43
2018-11-20T01:27:11.673Z,16.93
2018-11-20T01:29:58.364Z,16.23
2018-11-20T01:33:23.132Z,18.23
2018-11-20T01:36:30.462Z,16.27
2018-11-20T01:39:31.364Z,21.77
2018-11-20T01:49:29.115Z,20.17
2018-11-20T01:58:57.497Z,19.87
2018-11-20T02:01:45.420Z,22.90
2018-11-20T02:18:33.875Z,19.80
2018-11-20T02:29:07.854Z,22.03
2018-11-20T02:39:07.521Z,21.60
2018-11-20T02:53:09.269Z,22.87
2018-11-20T03:03:12.808Z,28.83
2018-11-20T03:37:12.454Z,27.90
2018-11-20T03:46:54.217Z,27.83
2018-11-20T03:53:29.156Z,30.77
2018-11-20T04:17:04.968Z,33.53
2018-11-20T04:20:12.289Z,29.27
2018-11-20T04:33:59.996Z,31.27
2018-11-20T04:36:46.877Z,30.43
2018-11-20T04:43:35.504Z,31.33
2018-11-20T04:56:48.475Z,30.63
2018-11-20T05:06:33.968Z,31.47
2018-11-20T05:26:07.103Z,27.60
2018-11-20T05:29:30.712Z,28.90
2018-11-20T05:32:56.646Z,31.80
2018-11-20T05:56:18.919Z,29.13
2018-11-20T06:02:53.854Z,28.37
2018-11-20T06:16:03.513Z,29.80
2018-11-20T06:26:23.412Z,30.60
2018-11-20T06:29:11.460Z,32.70
2018-11-20T06:32:36.420Z,35.23
2018-11-20T06:42:56.186Z,31.57
2018-11-20T06:53:17.400Z,30.33
2018-11-20T07:06:47.940Z,32.70
2018-11-20T07:10:11.533Z,30.70
2018-11-20T07:17:06.141Z,30.87
2018-11-20T07:23:34.025Z,35.90
2018-11-20T07:37:17.266Z,31.17
2018-11-20T07:40:24.893Z,30.67
2018-11-20T08:30:37.521Z,33.57
2018-11-20T09:00:05.560Z,33.67
2018-11-20T09:02:54.185Z,33.67
2018-11-20T09:10:12.214Z,32.37
2018-11-20T09:12:58.960Z,34.33
2018-11-20T09:15:52.676Z,36.43
2018-11-20T09:18:55.719Z,34.97
2018-11-20T09:21:52.499Z,36.83
2018-11-20T09:24:40.335Z,36.33
2018-11-20T09:27:27.205Z,38.40
2018-11-20T09:30:13.898Z,32.40
2018-11-20T09:33:02.074Z,38.00
2018-11-20T09:36:02.339Z,32.33
2018-11-20T09:38:51.776Z,39.33
2018-11-20T09:41:33.016Z,34.00
2018-11-20T09:44:40.631Z,32.33
2018-11-20T09:47:34.140Z,38.67
2018-11-20T09:50:21.290Z,35.00
2018-11-20T09:53:07.624Z,34.97
2018-11-20T09:55:54.072Z,32.83
2018-11-20T09:58:50.604Z,37.23
2018-11-20T10:01:37.599Z,38.43
2018-11-20T10:04:28.105Z,33.87
2018-11-20T10:07:21.689Z,33.60
2018-11-20T10:10:10.107Z,34.73
2018-11-20T10:12:52.216Z,35.80
2018-11-20T10:15:48.446Z,34.73
2018-11-20T10:18:45.372Z,35.50
2018-11-20T10:21:38.713Z,32.63
2018-11-20T10:24:37.244Z,30.77
2018-11-20T10:27:43.471Z,36.23
2018-11-20T10:30:33.938Z,32.40
2018-11-20T10:33:20.512Z,34.90
2018-11-20T10:36:26.447Z,32.83
2018-11-20T10:39:14.147Z,35.30
2018-11-20T10:42:00.672Z,32.10
2018-11-20T10:44:55.376Z,33.03
2018-11-20T10:47:49.038Z,33.63
2018-11-20T10:50:35.178Z,36.63
2018-11-20T10:53:26.206Z,34.50
2018-11-20T10:56:25.342Z,33.03
2018-11-20T10:59:13.117Z,31.93
2018-11-20T11:01:59.609Z,27.50
2018-11-20T11:04:46.167Z,33.80
2018-11-20T11:07:52.486Z,32.20
2018-11-20T11:10:44.411Z,33.10
2018-11-20T11:13:30.442Z,33.43
2018-11-20T11:16:33.755Z,33.13
2018-11-20T11:19:36.340Z,30.17
2018-11-20T11:22:27.793Z,29.90
2018-11-20T11:25:28.177Z,32.83
2018-11-20T11:28:25.206Z,36.67
2018-11-20T11:31:18.499Z,28.13
2018-11-20T11:34:07.208Z,33.87
2018-11-20T11:36:46.259Z,31.93
2018-11-20T11:39:33.321Z,34.23
2018-11-20T11:42:24.119Z,31.37
2018-11-20T11:45:29.768Z,31.37
2018-11-20T11:48:12.769Z,30.50
2018-11-20T11:51:07.094Z,40.10
2018-11-20T11:54:05.497Z,31.37
2018-11-20T11:56:53.008Z,29.93
2018-11-20T11:59:44.028Z,34.70
2018-11-20T12:05:17.897Z,30.47
2018-11-20T12:08:04.171Z,37.37
2018-11-20T12:11:01.180Z,33.60
2018-11-20T12:13:51.422Z,30.07
2018-11-20T12:16:39.552Z,35.77
2018-11-20T12:19:25.871Z,30.97
2018-11-20T12:22:11.859Z,33.63
2018-11-20T12:25:02.243Z,34.63
2018-11-20T12:27:56.569Z,36.60
2018-11-20T12:30:34.836Z,30.57
2018-11-20T12:33:20.035Z,33.93
2018-11-20T12:36:12.307Z,33.17
2018-11-20T12:39:07.719Z,33.87
2018-11-20T12:42:07.636Z,29.33
2018-11-20T12:45:04.216Z,31.37
2018-11-20T12:47:52.430Z,31.90
2018-11-20T12:50:38.929Z,37.23
2018-11-20T12:53:32.941Z,35.70
2018-11-20T12:56:15.806Z,34.67
2018-11-20T12:59:02.678Z,35.10
2018-11-20T13:01:59.207Z,36.57
2018-11-20T13:04:47.083Z,34.40
2018-11-20T13:07:34.973Z,34.00
2018-11-20T13:10:41.179Z,37.07
2018-11-20T13:13:21.560Z,32.13
2018-11-20T13:16:11.805Z,35.73
2018-11-20T13:18:59.412Z,35.80
2018-11-20T13:21:58.005Z,34.87
2018-11-20T13:24:52.040Z,42.17
2018-11-20T13:27:43.383Z,36.53
2018-11-20T13:30:39.950Z,37.50
2018-11-20T13:33:30.234Z,33.77
2018-11-20T13:39:21.118Z,36.33
2018-11-20T13:42:13.266Z,33.77
2018-11-20T13:45:03.538Z,36.77
2018-11-20T13:47:42.332Z,33.73
2018-11-20T13:50:45.060Z,35.40
2018-11-20T13:53:38.317Z,34.77
2018-11-20T13:56:25.076Z,37.90
2018-11-20T13:59:16.993Z,42.20
2018-11-20T14:02:03.928Z,35.63
2018-11-20T14:04:52.073Z,43.67
2018-11-20T14:07:30.042Z,36.37
2018-11-20T14:10:28.344Z,40.77
2018-11-20T14:13:15.407Z,39.20
2018-11-20T14:16:09.192Z,39.70
2018-11-20T14:19:01.459Z,37.30
2018-11-20T14:21:48.142Z,39.77
2018-11-20T14:24:34.435Z,41.27
2018-11-20T14:27:20.733Z,38.33
2018-11-20T14:30:11.240Z,35.40
2018-11-20T14:32:58.811Z,40.93
2018-11-20T14:35:45.423Z,42.23
2018-11-20T14:38:41.813Z,37.47
2018-11-20T14:41:29.642Z,39.50
2018-11-20T14:44:35.427Z,46.73
2018-11-20T14:47:38.284Z,41.87
2018-11-20T14:50:32.235Z,38.87
2018-11-20T14:53:20.120Z,35.83
2018-11-20T14:56:06.720Z,39.00
2018-11-20T14:59:00.219Z,35.13
2018-11-20T15:01:46.651Z,38.50
2018-11-20T15:04:33.371Z,32.90
2018-11-20T15:07:19.620Z,32.80
2018-11-20T15:10:22.642Z,32.83
2018-11-20T15:13:10.813Z,32.00
2018-11-20T15:16:10.626Z,36.17
2018-11-20T15:19:17.179Z,25.00
2018-11-20T15:21:53.924Z,24.53
2018-11-20T15:24:47.054Z,22.27
2018-11-20T15:27:33.969Z,23.93
2018-11-20T15:30:30.668Z,22.23
2018-11-20T15:33:21.184Z,19.67
2018-11-20T15:36:12.198Z,22.77
2018-11-20T15:38:52.487Z,19.20
2018-11-20T15:41:40.784Z,19.23
2018-11-20T15:44:37.474Z,21.13
2018-11-20T15:47:37.295Z,14.97
2018-11-20T15:50:26.087Z,16.93
2018-11-20T15:53:12.712Z,17.77
2018-11-20T15:56:13.345Z,14.13
2018-11-20T15:58:59.473Z,17.37
2018-11-20T16:02:05.235Z,17.30
2018-11-20T16:04:51.568Z,17.87
2018-11-20T16:07:31.046Z,15.67
2018-11-20T16:10:25.000Z,17.73
2018-11-20T16:13:22.239Z,19.13
2018-11-20T16:16:16.846Z,15.43
2018-11-20T16:19:03.464Z,13.07
2018-11-20T16:21:45.035Z,25.93
2018-11-20T16:24:34.560Z,14.73
2018-11-20T16:27:32.113Z,12.60
2018-11-20T16:30:13.632Z,11.47
2018-11-20T16:33:17.157Z,13.77
2018-11-20T16:36:03.624Z,12.33
2018-11-20T16:38:54.495Z,16.77
2018-11-20T16:42:00.437Z,12.57
2018-11-20T16:44:57.083Z,13.37
2018-11-20T16:47:49.061Z,14.83
2018-11-20T16:50:49.443Z,15.27
2018-11-20T16:53:35.741Z,12.33
2018-11-20T16:56:23.060Z,14.37
2018-11-20T16:59:25.856Z,13.33
2018-11-20T17:02:22.719Z,16.57
2018-11-20T17:05:03.951Z,15.87
2018-11-20T17:07:56.186Z,15.40
2018-11-20T17:10:40.183Z,14.17
2018-11-20T17:13:34.257Z,17.23
2018-11-20T17:16:24.838Z,14.83
2018-11-20T17:19:11.036Z,19.10
2018-11-20T17:21:57.213Z,14.73
2018-11-20T17:25:02.855Z,17.60
2018-11-20T17:27:50.716Z,15.90
2018-11-20T17:30:38.610Z,13.77
2018-11-20T17:33:32.210Z,15.27
2018-11-20T17:36:20.169Z,16.93
2018-11-20T17:39:00.459Z,18.47
2018-11-20T17:41:37.078Z,19.63
2018-11-20T17:44:25.307Z,15.33
2018-11-20T17:47:12.712Z,14.33
2018-11-20T17:50:19.081Z,15.67
2018-11-20T17:53:05.509Z,17.23
2018-11-20T17:55:51.997Z,15.80
2018-11-20T17:58:40.539Z,17.23
2018-11-20T18:01:43.591Z,16.67
2018-11-20T18:04:43.594Z,16.13
2018-11-20T18:07:34.395Z,17.37
2018-11-20T18:10:23.320Z,20.00
2018-11-20T18:13:11.039Z,17.40
2018-11-20T18:15:58.471Z,17.80
2018-11-20T18:18:46.460Z,20.07
2018-11-20T18:21:47.270Z,19.53
2018-11-20T18:24:49.737Z,24.10
2018-11-20T18:27:36.056Z,19.70
2018-11-20T18:30:23.555Z,31.50
2018-11-20T18:33:11.417Z,20.73
2018-11-20T18:35:57.609Z,19.37
2018-11-20T18:38:43.991Z,21.53
2018-11-20T18:41:31.687Z,19.90
2018-11-20T18:44:25.044Z,21.43
2018-11-20T18:47:11.349Z,19.40
2018-11-20T18:50:02.187Z,18.63
2018-11-20T18:53:04.780Z,20.37
2018-11-20T18:55:52.881Z,22.07
2018-11-20T18:58:41.154Z,23.07
2018-11-20T19:01:31.580Z,21.50
2018-11-20T19:04:32.361Z,21.70
2018-11-20T19:07:38.459Z,22.47
2018-11-20T19:10:26.212Z,23.53
2018-11-20T19:13:17.675Z,21.27
2018-11-20T19:16:24.416Z,23.53
2018-11-20T19:19:10.970Z,21.80
2018-11-20T19:21:55.177Z,20.50
2018-11-20T19:24:46.068Z,28.90
2018-11-20T19:27:32.578Z,19.80
2018-11-20T19:30:23.296Z,20.00
2018-11-20T19:33:13.989Z,23.03
2018-11-20T19:36:15.972Z,23.93
2018-11-20T19:39:05.849Z,21.43
2018-11-20T19:42:02.751Z,22.30
2018-11-20T19:44:50.413Z,22.57
2018-11-20T19:47:44.298Z,21.43
2018-11-20T19:50:44.441Z,23.73
2018-11-20T19:53:50.851Z,23.93
2018-11-20T19:56:37.839Z,22.40
2018-11-20T19:59:24.293Z,24.47
2018-11-20T20:02:21.363Z,21.60
2018-11-20T20:05:07.947Z,24.07
2018-11-20T20:07:57.752Z,24.33
2018-11-20T20:11:03.588Z,22.43
2018-11-20T20:13:51.244Z,24.63
2018-11-20T20:16:27.749Z,29.00
2018-11-20T20:19:27.185Z,25.67
2018-11-20T20:22:18.169Z,27.80
2018-11-20T20:24:56.375Z,30.33
2018-11-20T20:27:43.133Z,27.13
2018-11-20T20:30:36.721Z,24.27
2018-11-20T20:33:23.176Z,27.37
2018-11-20T20:36:23.836Z,24.90
2018-11-20T20:39:06.985Z,25.93
2018-11-20T20:41:47.480Z,26.30
2018-11-20T20:44:48.207Z,26.60
2018-11-20T20:47:36.005Z,27.63
2018-11-20T20:50:38.888Z,28.53
2018-11-20T20:53:29.699Z,27.10
2018-11-20T20:56:17.646Z,29.57
2018-11-20T20:59:05.574Z,24.63
2018-11-20T21:01:53.479Z,28.80
2018-11-20T21:04:31.963Z,25.33
2018-11-20T21:07:22.817Z,23.90
2018-11-20T21:10:17.236Z,27.07
2018-11-20T21:12:54.036Z,30.67
2018-11-20T21:15:42.566Z,25.53
2018-11-20T21:18:33.546Z,26.43
2018-11-20T21:21:56.466Z,24.57
2018-11-20T21:24:56.569Z,28.00
2018-11-20T21:27:40.146Z,23.97
2018-11-20T21:30:26.697Z,22.77
2018-11-20T21:33:34.969Z,26.50
2018-11-20T21:36:26.011Z,25.80
2018-11-20T21:39:30.997Z,29.25
2018-11-20T21:42:17.606Z,23.83
2018-11-20T21:45:07.468Z,27.10
2018-11-20T21:48:13.240Z,25.53
2018-11-20T21:51:48.871Z,25.33
2018-11-20T21:54:42.019Z,27.27
2018-11-20T21:58:11.329Z,26.90
2018-11-20T22:01:17.319Z,22.67
2018-11-20T22:04:09.235Z,23.27
2018-11-20T22:06:56.157Z,25.87
2018-11-20T22:10:04.256Z,24.33
2018-11-20T22:13:06.738Z,25.07
2018-11-20T22:15:53.124Z,24.50
2018-11-20T22:18:40.179Z,25.17
2018-11-20T22:21:39.189Z,25.53
2018-11-20T22:24:19.635Z,24.43
2018-11-20T22:27:14.356Z,25.80
2018-11-20T22:30:01.216Z,27.97
2018-11-20T22:32:50.459Z,22.67
2018-11-20T22:35:44.718Z,22.43
2018-11-20T22:38:21.889Z,23.87
2018-11-20T22:41:24.764Z,23.80
2018-11-20T22:44:15.226Z,24.57
2018-11-20T22:47:06.506Z,24.97
2018-11-20T22:49:53.942Z,23.93
2018-11-20T22:52:41.556Z,26.77
2018-11-20T22:55:28.357Z,22.63
2018-11-20T22:58:21.629Z,24.30
2018-11-20T23:01:09.233Z,21.80
2018-11-20T23:03:59.669Z,25.13
2018-11-20T23:06:55.645Z,21.70
2018-11-20T23:09:28.554Z,22.40
2018-11-20T23:11:57.574Z,21.37
2018-11-20T23:14:27.588Z,26.53
2018-11-20T23:17:00.031Z,23.17
2018-11-20T23:19:30.482Z,29.17
2018-11-20T23:22:00.028Z,24.47
2018-11-20T23:24:28.466Z,25.43
2018-11-20T23:26:57.736Z,23.77
2018-11-20T23:29:27.762Z,23.03
2018-11-20T23:32:00.382Z,24.97
2018-11-20T23:34:29.505Z,24.53
2018-11-20T23:36:58.561Z,24.83
2018-11-20T23:39:28.076Z,27.17
2018-11-20T23:41:57.402Z,26.00
2018-11-20T23:44:25.942Z,27.00
2018-11-20T23:46:56.283Z,27.17
2018-11-20T23:49:25.370Z,24.20
2018-11-20T23:51:54.497Z,25.63
2018-11-20T23:54:24.295Z,26.10
2018-11-20T23:56:53.148Z,28.20
2018-11-20T23:59:22.200Z,28.70
